sensor_id;sensor_type;location;lat;lon;timestamp;P1;durP1;ratioP1;P2;durP2;ratioP2
5157;SDS011;2598;52.364;9.772;2022-11-25T00:00:10;13.67;;;5.20;;
5157;SDS011;2598;52.364;9.772;2022-11-25T00:02:41;13.37;;;5.07;;
5157;SDS011;2598;52.364;9.772;2022-11-25T00:05:08;13.30;;;5.07;;
5157;SDS011;2598;52.364;9.772;2022-11-25T00:07:34;11.07;;;4.20;;
5157;SDS011;2598;52.364;9.772;2022-11-25T00:10:01;15.77;;;4.70;;
5157;SDS011;2598;52.364;9.772;2022-11-25T00:12:26;11.97;;;4.37;;
5157;SDS011;2598;52.364;9.772;2022-11-25T00:14:52;8.80;;;3.87;;
5157;SDS011;2598;52.364;9.772;2022-11-25T00:17:18;11.40;;;3.70;;
5157;SDS011;2598;52.364;9.772;2022-11-25T00:19:44;8.77;;;3.90;;
5157;SDS011;2598;52.364;9.772;2022-11-25T00:22:12;10.50;;;3.57;;
5157;SDS011;2598;52.364;9.772;2022-11-25T00:24:39;13.20;;;3.67;;
5157;SDS011;2598;52.364;9.772;2022-11-25T00:27:05;11.97;;;4.07;;
5157;SDS011;2598;52.364;9.772;2022-11-25T00:29:31;12.83;;;3.23;;
5157;SDS011;2598;52.364;9.772;2022-11-25T00:31:57;13.83;;;3.37;;
5157;SDS011;2598;52.364;9.772;2022-11-25T00:34:23;12.43;;;3.80;;
5157;SDS011;2598;52.364;9.772;2022-11-25T00:36:49;10.10;;;3.03;;
5157;SDS011;2598;52.364;9.772;2022-11-25T00:39:24;9.77;;;3.37;;
5157;SDS011;2598;52.364;9.772;2022-11-25T00:41:51;9.60;;;3.10;;
5157;SDS011;2598;52.364;9.772;2022-11-25T00:44:35;13.03;;;3.13;;
5157;SDS011;2598;52.364;9.772;2022-11-25T00:49:31;8.10;;;2.60;;
5157;SDS011;2598;52.364;9.772;2022-11-25T00:51:57;7.47;;;2.50;;
5157;SDS011;2598;52.364;9.772;2022-11-25T00:54:23;9.83;;;2.57;;
5157;SDS011;2598;52.364;9.772;2022-11-25T00:56:50;8.70;;;2.70;;
5157;SDS011;2598;52.364;9.772;2022-11-25T00:59:16;14.83;;;2.87;;
5157;SDS011;2598;52.364;9.772;2022-11-25T01:01:42;10.50;;;2.40;;
5157;SDS011;2598;52.364;9.772;2022-11-25T01:04:08;10.67;;;2.60;;
5157;SDS011;2598;52.364;9.772;2022-11-25T01:06:34;10.47;;;3.07;;
5157;SDS011;2598;52.364;9.772;2022-11-25T01:09:01;11.30;;;2.47;;
5157;SDS011;2598;52.364;9.772;2022-11-25T01:11:27;14.67;;;2.83;;
5157;SDS011;2598;52.364;9.772;2022-11-25T01:13:53;7.33;;;2.60;;
5157;SDS011;2598;52.364;9.772;2022-11-25T01:16:21;8.30;;;2.53;;
5157;SDS011;2598;52.364;9.772;2022-11-25T01:18:47;14.70;;;2.50;;
5157;SDS011;2598;52.364;9.772;2022-11-25T01:21:22;13.77;;;2.57;;
5157;SDS011;2598;52.364;9.772;2022-11-25T01:23:48;12.53;;;2.20;;
5157;SDS011;2598;52.364;9.772;2022-11-25T01:26:16;12.00;;;2.77;;
5157;SDS011;2598;52.364;9.772;2022-11-25T01:28:42;7.53;;;2.40;;
5157;SDS011;2598;52.364;9.772;2022-11-25T01:31:09;11.80;;;2.93;;
5157;SDS011;2598;52.364;9.772;2022-11-25T01:33:35;7.60;;;2.53;;
5157;SDS011;2598;52.364;9.772;2022-11-25T01:36:05;7.70;;;2.03;;
5157;SDS011;2598;52.364;9.772;2022-11-25T01:38:31;12.43;;;2.63;;
5157;SDS011;2598;52.364;9.772;2022-11-25T01:40:58;12.27;;;2.70;;
5157;SDS011;2598;52.364;9.772;2022-11-25T01:43:25;9.53;;;2.30;;
5157;SDS011;2598;52.364;9.772;2022-11-25T01:45:52;7.30;;;2.10;;
5157;SDS011;2598;52.364;9.772;2022-11-25T01:48:21;8.67;;;2.20;;
5157;SDS011;2598;52.364;9.772;2022-11-25T01:50:48;8.33;;;2.20;;
5157;SDS011;2598;52.364;9.772;2022-11-25T01:53:14;10.50;;;2.63;;
5157;SDS011;2598;52.364;9.772;2022-11-25T01:55:42;14.40;;;2.90;;
5157;SDS011;2598;52.364;9.772;2022-11-25T01:58:16;11.63;;;2.73;;
5157;SDS011;2598;52.364;9.772;2022-11-25T02:00:43;13.10;;;3.33;;
5157;SDS011;2598;52.364;9.772;2022-11-25T02:03:19;11.20;;;2.70;;
5157;SDS011;2598;52.364;9.772;2022-11-25T02:08:18;8.13;;;2.23;;
5157;SDS011;2598;52.364;9.772;2022-11-25T02:10:45;7.27;;;2.27;;
5157;SDS011;2598;52.364;9.772;2022-11-25T02:13:12;7.60;;;2.50;;
5157;SDS011;2598;52.364;9.772;2022-11-25T02:15:38;12.40;;;2.53;;
5157;SDS011;2598;52.364;9.772;2022-11-25T02:18:04;9.63;;;3.20;;
5157;SDS011;2598;52.364;9.772;2022-11-25T02:20:30;11.80;;;2.60;;
5157;SDS011;2598;52.364;9.772;2022-11-25T02:25:40;8.70;;;2.57;;
5157;SDS011;2598;52.364;9.772;2022-11-25T02:28:08;12.37;;;2.40;;
5157;SDS011;2598;52.364;9.772;2022-11-25T02:30:34;8.47;;;2.77;;
5157;SDS011;2598;52.364;9.772;2022-11-25T02:33:01;16.27;;;3.00;;
5157;SDS011;2598;52.364;9.772;2022-11-25T02:35:31;12.13;;;2.90;;
5157;SDS011;2598;52.364;9.772;2022-11-25T02:38:02;8.63;;;2.10;;
5157;SDS011;2598;52.364;9.772;2022-11-25T02:40:30;9.60;;;2.53;;
5157;SDS011;2598;52.364;9.772;2022-11-25T02:42:57;9.33;;;2.40;;
5157;SDS011;2598;52.364;9.772;2022-11-25T02:45:25;9.00;;;2.30;;
5157;SDS011;2598;52.364;9.772;2022-11-25T02:47:54;12.30;;;2.87;;
5157;SDS011;2598;52.364;9.772;2022-11-25T02:50:20;14.00;;;3.20;;
5157;SDS011;2598;52.364;9.772;2022-11-25T02:52:46;15.73;;;2.80;;
5157;SDS011;2598;52.364;9.772;2022-11-25T02:55:12;8.40;;;2.30;;
5157;SDS011;2598;52.364;9.772;2022-11-25T02:57:38;11.03;;;2.47;;
5157;SDS011;2598;52.364;9.772;2022-11-25T03:00:05;13.77;;;2.80;;
5157;SDS011;2598;52.364;9.772;2022-11-25T03:02:31;8.90;;;2.03;;
5157;SDS011;2598;52.364;9.772;2022-11-25T03:04:58;10.43;;;2.70;;
5157;SDS011;2598;52.364;9.772;2022-11-25T03:07:23;8.13;;;2.10;;
5157;SDS011;2598;52.364;9.772;2022-11-25T03:09:49;11.60;;;2.80;;
5157;SDS011;2598;52.364;9.772;2022-11-25T03:12:16;18.77;;;2.57;;
5157;SDS011;2598;52.364;9.772;2022-11-25T03:14:45;12.70;;;2.17;;
5157;SDS011;2598;52.364;9.772;2022-11-25T03:17:12;10.90;;;2.93;;
5157;SDS011;2598;52.364;9.772;2022-11-25T03:19:38;12.83;;;2.40;;
5157;SDS011;2598;52.364;9.772;2022-11-25T03:22:04;8.63;;;2.00;;
5157;SDS011;2598;52.364;9.772;2022-11-25T03:24:30;12.97;;;2.67;;
5157;SDS011;2598;52.364;9.772;2022-11-25T03:26:56;9.83;;;2.70;;
5157;SDS011;2598;52.364;9.772;2022-11-25T03:29:22;11.47;;;2.53;;
5157;SDS011;2598;52.364;9.772;2022-11-25T03:31:48;11.90;;;2.43;;
5157;SDS011;2598;52.364;9.772;2022-11-25T03:34:14;7.97;;;1.87;;
5157;SDS011;2598;52.364;9.772;2022-11-25T03:36:40;12.60;;;2.53;;
5157;SDS011;2598;52.364;9.772;2022-11-25T03:39:06;7.93;;;2.33;;
5157;SDS011;2598;52.364;9.772;2022-11-25T03:41:32;15.30;;;2.30;;
5157;SDS011;2598;52.364;9.772;2022-11-25T03:43:58;11.57;;;2.30;;
5157;SDS011;2598;52.364;9.772;2022-11-25T03:46:24;14.47;;;2.90;;
5157;SDS011;2598;52.364;9.772;2022-11-25T03:48:50;10.00;;;2.30;;
5157;SDS011;2598;52.364;9.772;2022-11-25T03:51:16;12.47;;;2.20;;
5157;SDS011;2598;52.364;9.772;2022-11-25T03:53:42;12.40;;;2.77;;
5157;SDS011;2598;52.364;9.772;2022-11-25T03:56:08;17.10;;;3.43;;
5157;SDS011;2598;52.364;9.772;2022-11-25T03:58:34;13.57;;;2.83;;
5157;SDS011;2598;52.364;9.772;2022-11-25T04:01:01;11.20;;;2.53;;
5157;SDS011;2598;52.364;9.772;2022-11-25T04:03:27;12.67;;;2.63;;
5157;SDS011;2598;52.364;9.772;2022-11-25T04:05:53;12.13;;;2.80;;
5157;SDS011;2598;52.364;9.772;2022-11-25T04:08:20;7.53;;;2.43;;
5157;SDS011;2598;52.364;9.772;2022-11-25T04:10:47;11.00;;;2.30;;
5157;SDS011;2598;52.364;9.772;2022-11-25T04:13:13;13.80;;;2.33;;
5157;SDS011;2598;52.364;9.772;2022-11-25T04:15:43;14.40;;;3.00;;
5157;SDS011;2598;52.364;9.772;2022-11-25T04:18:10;14.37;;;3.07;;
5157;SDS011;2598;52.364;9.772;2022-11-25T04:20:36;12.50;;;3.23;;
5157;SDS011;2598;52.364;9.772;2022-11-25T04:23:02;12.93;;;2.60;;
5157;SDS011;2598;52.364;9.772;2022-11-25T04:25:30;12.30;;;2.83;;
5157;SDS011;2598;52.364;9.772;2022-11-25T04:27:56;9.83;;;2.67;;
5157;SDS011;2598;52.364;9.772;2022-11-25T04:30:22;14.83;;;2.60;;
5157;SDS011;2598;52.364;9.772;2022-11-25T04:32:48;9.87;;;2.47;;
5157;SDS011;2598;52.364;9.772;2022-11-25T04:35:14;16.40;;;3.23;;
5157;SDS011;2598;52.364;9.772;2022-11-25T04:37:40;19.43;;;2.70;;
5157;SDS011;2598;52.364;9.772;2022-11-25T04:40:06;16.30;;;3.33;;
5157;SDS011;2598;52.364;9.772;2022-11-25T04:42:34;14.77;;;2.80;;
5157;SDS011;2598;52.364;9.772;2022-11-25T04:45:04;14.53;;;3.27;;
5157;SDS011;2598;52.364;9.772;2022-11-25T04:47:31;21.90;;;3.33;;
5157;SDS011;2598;52.364;9.772;2022-11-25T04:49:57;11.43;;;2.77;;
5157;SDS011;2598;52.364;9.772;2022-11-25T04:52:23;11.97;;;2.73;;
5157;SDS011;2598;52.364;9.772;2022-11-25T04:54:49;10.10;;;2.80;;
5157;SDS011;2598;52.364;9.772;2022-11-25T04:57:15;13.10;;;3.10;;
5157;SDS011;2598;52.364;9.772;2022-11-25T04:59:41;8.73;;;2.60;;
5157;SDS011;2598;52.364;9.772;2022-11-25T05:02:12;12.90;;;3.10;;
5157;SDS011;2598;52.364;9.772;2022-11-25T05:04:39;11.67;;;3.87;;
5157;SDS011;2598;52.364;9.772;2022-11-25T05:07:05;10.77;;;2.90;;
5157;SDS011;2598;52.364;9.772;2022-11-25T05:09:31;22.13;;;3.70;;
5157;SDS011;2598;52.364;9.772;2022-11-25T05:11:57;17.10;;;3.10;;
5157;SDS011;2598;52.364;9.772;2022-11-25T05:14:23;13.87;;;3.40;;
5157;SDS011;2598;52.364;9.772;2022-11-25T05:16:49;11.53;;;3.13;;
5157;SDS011;2598;52.364;9.772;2022-11-25T05:19:15;20.93;;;3.23;;
5157;SDS011;2598;52.364;9.772;2022-11-25T05:21:41;9.80;;;2.37;;
5157;SDS011;2598;52.364;9.772;2022-11-25T05:24:07;9.40;;;3.10;;
5157;SDS011;2598;52.364;9.772;2022-11-25T05:26:33;10.87;;;2.40;;
5157;SDS011;2598;52.364;9.772;2022-11-25T05:28:59;15.13;;;3.37;;
5157;SDS011;2598;52.364;9.772;2022-11-25T05:31:25;11.80;;;3.17;;
5157;SDS011;2598;52.364;9.772;2022-11-25T05:33:51;11.57;;;3.60;;
5157;SDS011;2598;52.364;9.772;2022-11-25T05:36:17;19.10;;;3.30;;
5157;SDS011;2598;52.364;9.772;2022-11-25T05:38:43;16.03;;;3.17;;
5157;SDS011;2598;52.364;9.772;2022-11-25T05:41:10;13.17;;;3.00;;
5157;SDS011;2598;52.364;9.772;2022-11-25T05:43:36;8.47;;;2.10;;
5157;SDS011;2598;52.364;9.772;2022-11-25T05:46:03;9.67;;;3.33;;
5157;SDS011;2598;52.364;9.772;2022-11-25T05:48:32;10.60;;;2.67;;
5157;SDS011;2598;52.364;9.772;2022-11-25T05:50:59;14.80;;;3.27;;
5157;SDS011;2598;52.364;9.772;2022-11-25T05:53:25;11.00;;;2.53;;
5157;SDS011;2598;52.364;9.772;2022-11-25T05:55:54;12.50;;;3.10;;
5157;SDS011;2598;52.364;9.772;2022-11-25T05:58:21;8.57;;;2.83;;
5157;SDS011;2598;52.364;9.772;2022-11-25T06:00:47;15.30;;;2.80;;
5157;SDS011;2598;52.364;9.772;2022-11-25T06:03:13;16.90;;;2.73;;
5157;SDS011;2598;52.364;9.772;2022-11-25T06:05:39;16.00;;;3.00;;
5157;SDS011;2598;52.364;9.772;2022-11-25T06:08:05;13.60;;;2.77;;
5157;SDS011;2598;52.364;9.772;2022-11-25T06:10:31;14.27;;;3.30;;
5157;SDS011;2598;52.364;9.772;2022-11-25T06:12:57;15.70;;;2.80;;
5157;SDS011;2598;52.364;9.772;2022-11-25T06:15:23;15.47;;;3.23;;
5157;SDS011;2598;52.364;9.772;2022-11-25T06:17:50;20.17;;;3.00;;
5157;SDS011;2598;52.364;9.772;2022-11-25T06:20:16;16.90;;;3.10;;
5157;SDS011;2598;52.364;9.772;2022-11-25T06:22:42;20.77;;;4.10;;
5157;SDS011;2598;52.364;9.772;2022-11-25T06:25:08;10.70;;;3.03;;
5157;SDS011;2598;52.364;9.772;2022-11-25T06:27:34;8.20;;;3.20;;
5157;SDS011;2598;52.364;9.772;2022-11-25T06:30:00;12.20;;;3.03;;
5157;SDS011;2598;52.364;9.772;2022-11-25T06:32:26;8.90;;;2.23;;
5157;SDS011;2598;52.364;9.772;2022-11-25T06:34:52;19.03;;;2.90;;
5157;SDS011;2598;52.364;9.772;2022-11-25T06:37:18;11.90;;;3.10;;
5157;SDS011;2598;52.364;9.772;2022-11-25T06:39:44;10.60;;;2.87;;
5157;SDS011;2598;52.364;9.772;2022-11-25T06:42:10;11.63;;;3.43;;
5157;SDS011;2598;52.364;9.772;2022-11-25T06:44:36;11.80;;;3.20;;
5157;SDS011;2598;52.364;9.772;2022-11-25T06:47:02;8.97;;;2.60;;
5157;SDS011;2598;52.364;9.772;2022-11-25T06:49:28;9.90;;;3.00;;
5157;SDS011;2598;52.364;9.772;2022-11-25T06:51:54;13.57;;;3.23;;
5157;SDS011;2598;52.364;9.772;2022-11-25T06:54:20;13.17;;;3.13;;
5157;SDS011;2598;52.364;9.772;2022-11-25T06:56:46;12.07;;;2.87;;
5157;SDS011;2598;52.364;9.772;2022-11-25T06:59:17;7.00;;;2.20;;
5157;SDS011;2598;52.364;9.772;2022-11-25T07:01:44;11.57;;;2.80;;
5157;SDS011;2598;52.364;9.772;2022-11-25T07:04:10;12.07;;;2.53;;
5157;SDS011;2598;52.364;9.772;2022-11-25T07:06:36;15.80;;;2.67;;
5157;SDS011;2598;52.364;9.772;2022-11-25T07:09:02;10.00;;;2.57;;
5157;SDS011;2598;52.364;9.772;2022-11-25T07:11:33;11.77;;;3.07;;
5157;SDS011;2598;52.364;9.772;2022-11-25T07:14:03;12.90;;;3.47;;
5157;SDS011;2598;52.364;9.772;2022-11-25T07:16:30;13.03;;;3.00;;
5157;SDS011;2598;52.364;9.772;2022-11-25T07:18:57;16.23;;;3.00;;
5157;SDS011;2598;52.364;9.772;2022-11-25T07:21:25;11.30;;;2.43;;
5157;SDS011;2598;52.364;9.772;2022-11-25T07:23:53;22.47;;;3.13;;
5157;SDS011;2598;52.364;9.772;2022-11-25T07:26:20;14.57;;;2.40;;
5157;SDS011;2598;52.364;9.772;2022-11-25T07:28:46;8.80;;;2.43;;
5157;SDS011;2598;52.364;9.772;2022-11-25T07:33:39;11.73;;;2.97;;
5157;SDS011;2598;52.364;9.772;2022-11-25T07:36:06;18.90;;;2.90;;
5157;SDS011;2598;52.364;9.772;2022-11-25T07:38:33;13.10;;;2.93;;
5157;SDS011;2598;52.364;9.772;2022-11-25T07:41:12;13.07;;;3.13;;
5157;SDS011;2598;52.364;9.772;2022-11-25T07:43:39;10.60;;;2.67;;
5157;SDS011;2598;52.364;9.772;2022-11-25T07:48:34;9.03;;;2.50;;
5157;SDS011;2598;52.364;9.772;2022-11-25T07:51:00;9.00;;;2.50;;
5157;SDS011;2598;52.364;9.772;2022-11-25T07:53:26;12.50;;;2.83;;
5157;SDS011;2598;52.364;9.772;2022-11-25T07:55:52;14.07;;;2.43;;
5157;SDS011;2598;52.364;9.772;2022-11-25T07:58:18;16.47;;;3.00;;
5157;SDS011;2598;52.364;9.772;2022-11-25T08:00:44;11.50;;;2.80;;
5157;SDS011;2598;52.364;9.772;2022-11-25T08:03:10;9.77;;;2.60;;
5157;SDS011;2598;52.364;9.772;2022-11-25T08:05:36;8.87;;;2.47;;
5157;SDS011;2598;52.364;9.772;2022-11-25T08:08:02;8.20;;;2.37;;
5157;SDS011;2598;52.364;9.772;2022-11-25T08:10:28;15.93;;;2.97;;
5157;SDS011;2598;52.364;9.772;2022-11-25T08:12:54;10.70;;;2.43;;
5157;SDS011;2598;52.364;9.772;2022-11-25T08:15:20;11.03;;;2.77;;
5157;SDS011;2598;52.364;9.772;2022-11-25T08:17:46;12.13;;;2.27;;
5157;SDS011;2598;52.364;9.772;2022-11-25T08:20:16;10.73;;;2.67;;
5157;SDS011;2598;52.364;9.772;2022-11-25T08:22:42;18.30;;;2.97;;
5157;SDS011;2598;52.364;9.772;2022-11-25T08:25:08;13.63;;;2.97;;
5157;SDS011;2598;52.364;9.772;2022-11-25T08:27:34;7.47;;;2.80;;
5157;SDS011;2598;52.364;9.772;2022-11-25T08:30:00;13.77;;;3.10;;
5157;SDS011;2598;52.364;9.772;2022-11-25T08:32:26;10.67;;;2.23;;
5157;SDS011;2598;52.364;9.772;2022-11-25T08:34:52;8.03;;;2.07;;
5157;SDS011;2598;52.364;9.772;2022-11-25T08:37:18;7.57;;;2.20;;
5157;SDS011;2598;52.364;9.772;2022-11-25T08:39:44;8.67;;;2.40;;
5157;SDS011;2598;52.364;9.772;2022-11-25T08:42:10;12.00;;;2.17;;
5157;SDS011;2598;52.364;9.772;2022-11-25T08:44:36;17.37;;;3.63;;
5157;SDS011;2598;52.364;9.772;2022-11-25T08:47:02;17.07;;;3.43;;
5157;SDS011;2598;52.364;9.772;2022-11-25T08:49:28;12.67;;;2.43;;
5157;SDS011;2598;52.364;9.772;2022-11-25T08:51:54;11.90;;;2.90;;
5157;SDS011;2598;52.364;9.772;2022-11-25T08:54:20;12.80;;;2.80;;
5157;SDS011;2598;52.364;9.772;2022-11-25T08:56:46;10.60;;;2.63;;
5157;SDS011;2598;52.364;9.772;2022-11-25T08:59:12;16.17;;;2.97;;
5157;SDS011;2598;52.364;9.772;2022-11-25T09:01:38;10.77;;;3.00;;
5157;SDS011;2598;52.364;9.772;2022-11-25T09:04:04;11.27;;;2.87;;
5157;SDS011;2598;52.364;9.772;2022-11-25T09:06:30;12.30;;;3.00;;
5157;SDS011;2598;52.364;9.772;2022-11-25T09:08:57;14.30;;;2.97;;
5157;SDS011;2598;52.364;9.772;2022-11-25T09:11:24;12.77;;;3.27;;
5157;SDS011;2598;52.364;9.772;2022-11-25T09:13:51;10.77;;;2.47;;
5157;SDS011;2598;52.364;9.772;2022-11-25T09:16:17;11.33;;;2.83;;
5157;SDS011;2598;52.364;9.772;2022-11-25T09:18:43;12.97;;;2.47;;
5157;SDS011;2598;52.364;9.772;2022-11-25T09:21:11;10.53;;;2.87;;
5157;SDS011;2598;52.364;9.772;2022-11-25T09:23:37;14.27;;;3.23;;
5157;SDS011;2598;52.364;9.772;2022-11-25T09:26:04;9.97;;;2.83;;
5157;SDS011;2598;52.364;9.772;2022-11-25T09:28:30;10.83;;;2.77;;
5157;SDS011;2598;52.364;9.772;2022-11-25T09:30:57;13.40;;;2.40;;
5157;SDS011;2598;52.364;9.772;2022-11-25T09:33:23;14.00;;;2.90;;
5157;SDS011;2598;52.364;9.772;2022-11-25T09:35:49;10.97;;;3.10;;
5157;SDS011;2598;52.364;9.772;2022-11-25T09:38:15;13.80;;;2.53;;
5157;SDS011;2598;52.364;9.772;2022-11-25T09:40:48;20.03;;;3.10;;
5157;SDS011;2598;52.364;9.772;2022-11-25T09:56:46;11.70;;;2.60;;
5157;SDS011;2598;52.364;9.772;2022-11-25T09:59:15;11.00;;;2.63;;
5157;SDS011;2598;52.364;9.772;2022-11-25T10:01:47;16.20;;;3.23;;
5157;SDS011;2598;52.364;9.772;2022-11-25T10:04:23;12.53;;;2.83;;
5157;SDS011;2598;52.364;9.772;2022-11-25T10:06:52;11.97;;;2.60;;
5157;SDS011;2598;52.364;9.772;2022-11-25T10:09:22;14.03;;;3.17;;
5157;SDS011;2598;52.364;9.772;2022-11-25T10:11:53;15.77;;;3.47;;
5157;SDS011;2598;52.364;9.772;2022-11-25T10:14:25;13.30;;;2.80;;
5157;SDS011;2598;52.364;9.772;2022-11-25T10:17:04;10.97;;;2.70;;
5157;SDS011;2598;52.364;9.772;2022-11-25T10:22:21;13.13;;;2.90;;
5157;SDS011;2598;52.364;9.772;2022-11-25T10:24:48;12.80;;;2.80;;
5157;SDS011;2598;52.364;9.772;2022-11-25T10:27:17;18.17;;;3.70;;
5157;SDS011;2598;52.364;9.772;2022-11-25T10:29:43;11.00;;;3.13;;
5157;SDS011;2598;52.364;9.772;2022-11-25T10:32:24;10.93;;;2.93;;
5157;SDS011;2598;52.364;9.772;2022-11-25T10:34:56;14.83;;;3.47;;
5157;SDS011;2598;52.364;9.772;2022-11-25T10:37:27;17.23;;;3.40;;
5157;SDS011;2598;52.364;9.772;2022-11-25T10:39:55;13.03;;;2.90;;
5157;SDS011;2598;52.364;9.772;2022-11-25T10:42:22;11.90;;;3.00;;
5157;SDS011;2598;52.364;9.772;2022-11-25T10:44:49;10.63;;;3.23;;
5157;SDS011;2598;52.364;9.772;2022-11-25T10:52:19;14.97;;;3.40;;
5157;SDS011;2598;52.364;9.772;2022-11-25T10:54:54;14.50;;;2.80;;
5157;SDS011;2598;52.364;9.772;2022-11-25T10:57:20;21.73;;;3.97;;
5157;SDS011;2598;52.364;9.772;2022-11-25T10:59:57;10.47;;;2.80;;
5157;SDS011;2598;52.364;9.772;2022-11-25T11:02:28;13.13;;;2.90;;
5157;SDS011;2598;52.364;9.772;2022-11-25T11:04:59;11.50;;;3.40;;
5157;SDS011;2598;52.364;9.772;2022-11-25T11:07:27;11.43;;;2.90;;
5157;SDS011;2598;52.364;9.772;2022-11-25T11:09:54;9.27;;;3.33;;
5157;SDS011;2598;52.364;9.772;2022-11-25T11:12:31;11.23;;;3.20;;
5157;SDS011;2598;52.364;9.772;2022-11-25T11:15:14;11.93;;;3.13;;
5157;SDS011;2598;52.364;9.772;2022-11-25T11:17:40;13.30;;;3.53;;
5157;SDS011;2598;52.364;9.772;2022-11-25T11:22:36;9.20;;;2.90;;
5157;SDS011;2598;52.364;9.772;2022-11-25T11:27:45;13.93;;;3.30;;
5157;SDS011;2598;52.364;9.772;2022-11-25T11:30:15;16.17;;;3.43;;
5157;SDS011;2598;52.364;9.772;2022-11-25T11:32:42;12.53;;;3.40;;
5157;SDS011;2598;52.364;9.772;2022-11-25T11:35:20;13.00;;;3.30;;
5157;SDS011;2598;52.364;9.772;2022-11-25T11:37:50;9.40;;;3.30;;
5157;SDS011;2598;52.364;9.772;2022-11-25T11:45:51;12.80;;;3.80;;
5157;SDS011;2598;52.364;9.772;2022-11-25T11:48:25;13.53;;;3.00;;
5157;SDS011;2598;52.364;9.772;2022-11-25T11:51:05;13.57;;;3.73;;
5157;SDS011;2598;52.364;9.772;2022-11-25T11:53:37;8.20;;;2.80;;
5157;SDS011;2598;52.364;9.772;2022-11-25T12:06:23;10.90;;;3.40;;
5157;SDS011;2598;52.364;9.772;2022-11-25T12:08:54;11.73;;;3.30;;
5157;SDS011;2598;52.364;9.772;2022-11-25T12:11:24;15.97;;;3.57;;
5157;SDS011;2598;52.364;9.772;2022-11-25T12:13:54;9.43;;;2.83;;
5157;SDS011;2598;52.364;9.772;2022-11-25T12:16:24;11.10;;;3.13;;
5157;SDS011;2598;52.364;9.772;2022-11-25T12:18:56;10.23;;;3.20;;
5157;SDS011;2598;52.364;9.772;2022-11-25T12:21:43;9.70;;;3.27;;
5157;SDS011;2598;52.364;9.772;2022-11-25T12:29:59;16.70;;;4.03;;
5157;SDS011;2598;52.364;9.772;2022-11-25T12:34:36;13.30;;;3.93;;
5157;SDS011;2598;52.364;9.772;2022-11-25T12:37:07;16.80;;;3.80;;
5157;SDS011;2598;52.364;9.772;2022-11-25T12:39:48;14.27;;;3.40;;
5157;SDS011;2598;52.364;9.772;2022-11-25T12:42:19;10.13;;;3.20;;
5157;SDS011;2598;52.364;9.772;2022-11-25T12:47:32;13.23;;;3.30;;
5157;SDS011;2598;52.364;9.772;2022-11-25T12:49:58;11.93;;;3.40;;
5157;SDS011;2598;52.364;9.772;2022-11-25T12:55:22;9.13;;;3.67;;
5157;SDS011;2598;52.364;9.772;2022-11-25T12:57:58;22.50;;;9.27;;
5157;SDS011;2598;52.364;9.772;2022-11-25T13:05:53;11.93;;;4.63;;
5157;SDS011;2598;52.364;9.772;2022-11-25T13:13:27;13.17;;;4.77;;
5157;SDS011;2598;52.364;9.772;2022-11-25T13:15:57;7.93;;;3.07;;
5157;SDS011;2598;52.364;9.772;2022-11-25T13:18:26;9.23;;;3.50;;
5157;SDS011;2598;52.364;9.772;2022-11-25T13:20:54;14.73;;;5.03;;
5157;SDS011;2598;52.364;9.772;2022-11-25T13:23:24;9.50;;;4.13;;
5157;SDS011;2598;52.364;9.772;2022-11-25T13:25:51;10.90;;;3.83;;
5157;SDS011;2598;52.364;9.772;2022-11-25T13:28:36;11.43;;;3.60;;
5157;SDS011;2598;52.364;9.772;2022-11-25T13:36:16;11.67;;;3.90;;
5157;SDS011;2598;52.364;9.772;2022-11-25T13:46:26;11.00;;;4.30;;
5157;SDS011;2598;52.364;9.772;2022-11-25T13:48:54;14.53;;;4.53;;
5157;SDS011;2598;52.364;9.772;2022-11-25T13:51:21;16.30;;;4.40;;
5157;SDS011;2598;52.364;9.772;2022-11-25T13:53:51;12.83;;;4.10;;
5157;SDS011;2598;52.364;9.772;2022-11-25T13:56:34;10.30;;;4.10;;
5157;SDS011;2598;52.364;9.772;2022-11-25T14:01:39;11.37;;;4.43;;
5157;SDS011;2598;52.364;9.772;2022-11-25T14:04:10;10.70;;;4.50;;
5157;SDS011;2598;52.364;9.772;2022-11-25T14:09:03;12.50;;;4.30;;
5157;SDS011;2598;52.364;9.772;2022-11-25T14:11:42;10.73;;;3.77;;
5157;SDS011;2598;52.364;9.772;2022-11-25T14:16:53;10.47;;;4.70;;
5157;SDS011;2598;52.364;9.772;2022-11-25T14:24:42;10.20;;;4.33;;
5157;SDS011;2598;52.364;9.772;2022-11-25T14:27:13;11.60;;;4.47;;
5157;SDS011;2598;52.364;9.772;2022-11-25T14:29:45;19.80;;;4.90;;
5157;SDS011;2598;52.364;9.772;2022-11-25T14:32:24;11.70;;;4.50;;
5157;SDS011;2598;52.364;9.772;2022-11-25T14:34:55;13.90;;;5.27;;
5157;SDS011;2598;52.364;9.772;2022-11-25T14:37:43;8.40;;;4.30;;
5157;SDS011;2598;52.364;9.772;2022-11-25T14:40:12;10.40;;;4.87;;
5157;SDS011;2598;52.364;9.772;2022-11-25T14:42:41;17.07;;;5.23;;
5157;SDS011;2598;52.364;9.772;2022-11-25T14:47:49;21.57;;;6.10;;
5157;SDS011;2598;52.364;9.772;2022-11-25T14:50:15;12.70;;;4.77;;
5157;SDS011;2598;52.364;9.772;2022-11-25T14:52:42;12.20;;;4.87;;
5157;SDS011;2598;52.364;9.772;2022-11-25T14:55:08;12.10;;;4.80;;
5157;SDS011;2598;52.364;9.772;2022-11-25T14:57:35;11.80;;;4.77;;
5157;SDS011;2598;52.364;9.772;2022-11-25T15:00:12;16.17;;;5.47;;
5157;SDS011;2598;52.364;9.772;2022-11-25T15:02:57;11.50;;;4.03;;
5157;SDS011;2598;52.364;9.772;2022-11-25T15:05:24;13.97;;;5.07;;
5157;SDS011;2598;52.364;9.772;2022-11-25T15:08:08;16.40;;;5.07;;
5157;SDS011;2598;52.364;9.772;2022-11-25T15:10:39;12.83;;;4.90;;
5157;SDS011;2598;52.364;9.772;2022-11-25T15:13:11;12.50;;;4.90;;
5157;SDS011;2598;52.364;9.772;2022-11-25T15:15:37;12.53;;;4.80;;
5157;SDS011;2598;52.364;9.772;2022-11-25T15:18:04;13.07;;;5.90;;
5157;SDS011;2598;52.364;9.772;2022-11-25T15:20:31;13.90;;;5.37;;
5157;SDS011;2598;52.364;9.772;2022-11-25T15:22:59;14.70;;;5.53;;
5157;SDS011;2598;52.364;9.772;2022-11-25T15:25:25;11.87;;;5.57;;
5157;SDS011;2598;52.364;9.772;2022-11-25T15:27:51;13.43;;;5.37;;
5157;SDS011;2598;52.364;9.772;2022-11-25T15:30:27;10.50;;;5.57;;
5157;SDS011;2598;52.364;9.772;2022-11-25T15:32:53;15.87;;;6.07;;
5157;SDS011;2598;52.364;9.772;2022-11-25T15:35:24;10.93;;;5.60;;
5157;SDS011;2598;52.364;9.772;2022-11-25T15:37:50;13.60;;;5.20;;
5157;SDS011;2598;52.364;9.772;2022-11-25T15:40:31;12.30;;;5.73;;
5157;SDS011;2598;52.364;9.772;2022-11-25T15:42:58;19.33;;;5.93;;
5157;SDS011;2598;52.364;9.772;2022-11-25T15:45:24;16.30;;;6.27;;
5157;SDS011;2598;52.364;9.772;2022-11-25T15:47:51;14.60;;;5.73;;
5157;SDS011;2598;52.364;9.772;2022-11-25T15:50:22;13.20;;;5.07;;
5157;SDS011;2598;52.364;9.772;2022-11-25T15:52:50;12.27;;;5.07;;
5157;SDS011;2598;52.364;9.772;2022-11-25T15:57:43;15.93;;;5.33;;
5157;SDS011;2598;52.364;9.772;2022-11-25T16:00:14;12.23;;;5.80;;
5157;SDS011;2598;52.364;9.772;2022-11-25T16:10:22;15.47;;;5.70;;
5157;SDS011;2598;52.364;9.772;2022-11-25T16:18:11;14.00;;;5.73;;
5157;SDS011;2598;52.364;9.772;2022-11-25T16:20:38;14.83;;;6.23;;
5157;SDS011;2598;52.364;9.772;2022-11-25T16:23:07;12.63;;;5.80;;
5157;SDS011;2598;52.364;9.772;2022-11-25T16:25:34;14.43;;;5.70;;
5157;SDS011;2598;52.364;9.772;2022-11-25T16:28:02;14.20;;;6.20;;
5157;SDS011;2598;52.364;9.772;2022-11-25T16:30:28;13.17;;;6.47;;
5157;SDS011;2598;52.364;9.772;2022-11-25T16:32:55;18.17;;;6.30;;
5157;SDS011;2598;52.364;9.772;2022-11-25T16:35:21;14.33;;;6.50;;
5157;SDS011;2598;52.364;9.772;2022-11-25T16:37:47;18.00;;;6.23;;
5157;SDS011;2598;52.364;9.772;2022-11-25T16:40:13;16.17;;;6.00;;
5157;SDS011;2598;52.364;9.772;2022-11-25T16:42:40;16.90;;;6.47;;
5157;SDS011;2598;52.364;9.772;2022-11-25T16:45:27;12.27;;;6.10;;
5157;SDS011;2598;52.364;9.772;2022-11-25T16:47:52;17.13;;;7.07;;
5157;SDS011;2598;52.364;9.772;2022-11-25T16:50:18;11.37;;;6.10;;
5157;SDS011;2598;52.364;9.772;2022-11-25T16:52:45;22.97;;;8.70;;
5157;SDS011;2598;52.364;9.772;2022-11-25T16:55:11;15.97;;;7.03;;
5157;SDS011;2598;52.364;9.772;2022-11-25T16:57:37;16.47;;;7.97;;
5157;SDS011;2598;52.364;9.772;2022-11-25T17:00:04;25.73;;;8.90;;
5157;SDS011;2598;52.364;9.772;2022-11-25T17:02:33;17.77;;;8.13;;
5157;SDS011;2598;52.364;9.772;2022-11-25T17:05:18;13.63;;;7.50;;
5157;SDS011;2598;52.364;9.772;2022-11-25T17:07:44;19.00;;;9.00;;
5157;SDS011;2598;52.364;9.772;2022-11-25T17:10:11;19.50;;;8.97;;
5157;SDS011;2598;52.364;9.772;2022-11-25T17:12:38;20.47;;;8.70;;